Time;durP1;ratioP1;P1;durP2;ratioP2;P2;SDS_P1;SDS_P2;PMS_P1;PMS_P2;Temp;Humidity;BMP_temperature;BMP_pressure;BME280_temperature;BME280_humidity;BME280_pressure;Samples;Min_cycle;Max_cycle;Signal;HPM_P1;HPM_P2
2023/02/24 00:01:24;;;;;;;12.43;6.40;;;;;;;-10.78;67.79;97921.72;4976058;28;20561;-74
2023/02/24 00:03:58;;;;;;;18.42;8.55;;;;;;;-10.81;67.68;97921.78;4992136;28;20072;-76
2023/02/24 00:06:39;;;;;;;10.43;5.53;;;;;;;-10.88;67.93;97921.91;4976047;28;20046;-75
2023/02/24 00:09:14;;;;;;;12.98;6.60;;;;;;;-10.87;67.69;97941.69;4991963;28;20476;-75
2023/02/24 00:11:45;;;;;;;11.45;5.57;;;;;;;-10.90;67.95;97949.50;4975623;28;20053;-75
2023/02/24 00:14:17;;;;;;;14.45;7.60;;;;;;;-10.89;67.50;97958.94;4975854;28;20132;-74
2023/02/24 00:16:45;;;;;;;14.98;7.47;;;;;;;-10.84;67.58;97959.69;4975600;28;20046;-75
2023/02/24 00:19:17;;;;;;;14.80;7.80;;;;;;;-10.82;67.79;97955.38;4975550;28;20557;-75
2023/02/24 00:21:44;;;;;;;15.93;7.53;;;;;;;-10.84;67.51;97957.97;4993065;28;20054;-75
2023/02/24 00:24:10;;;;;;;10.95;6.25;;;;;;;-10.90;67.55;97949.50;4993163;28;20050;-74
2023/02/24 00:26:37;;;;;;;14.43;7.45;;;;;;;-10.85;67.46;97955.44;4993386;28;20049;-74
2023/02/24 00:29:05;;;;;;;12.18;6.72;;;;;;;-10.87;67.23;97962.31;4995359;28;20073;-75
2023/02/24 00:31:31;;;;;;;21.05;8.10;;;;;;;-10.90;67.09;97957.25;4978947;28;20046;-75
2023/02/24 00:33:59;;;;;;;16.27;7.13;;;;;;;-10.92;66.74;97971.88;4995300;28;20050;-75
2023/02/24 00:36:26;;;;;;;16.92;8.30;;;;;;;-10.94;67.09;97982.25;4978624;28;20042;-75
2023/02/24 00:38:58;;;;;;;12.77;6.05;;;;;;;-10.96;66.80;97983.13;4962633;28;20502;-74
2023/02/24 00:41:29;;;;;;;15.35;6.45;;;;;;;-11.01;66.85;97996.13;4979070;28;20041;-75
2023/02/24 00:44:05;;;;;;;15.77;8.35;;;;;;;-11.04;66.83;97989.28;4995054;28;20050;-74
2023/02/24 00:46:51;;;;;;;20.98;7.43;;;;;;;-11.13;66.91;98004.03;4979128;28;20042;-74
2023/02/24 00:49:19;;;;;;;9.82;6.25;;;;;;;-11.17;66.87;98000.63;4962123;28;20506;-74
2023/02/24 00:51:48;;;;;;;15.25;7.30;;;;;;;-11.27;67.03;98006.84;4995849;28;20137;-75
2023/02/24 00:54:15;;;;;;;15.60;6.85;;;;;;;-11.27;67.12;98004.25;4962333;28;20516;-75
2023/02/24 00:56:42;;;;;;;11.35;5.95;;;;;;;-11.30;66.63;98004.28;4995194;28;20402;-74
2023/02/24 00:59:10;;;;;;;13.43;6.55;;;;;;;-11.46;66.78;98005.41;4996043;28;20125;-76
2023/02/24 01:01:36;;;;;;;14.43;7.05;;;;;;;-11.50;66.66;98013.16;4978409;28;20058;-75
2023/02/24 01:04:04;;;;;;;12.95;6.60;;;;;;;-11.53;66.11;98028.66;4995749;28;20045;-77
2023/02/24 01:06:33;;;;;;;14.35;7.18;;;;;;;-11.59;65.93;98033.88;4994611;28;20038;-74
2023/02/24 01:08:59;;;;;;;18.23;7.38;;;;;;;-11.51;66.00;98047.56;4995580;28;20434;-75
2023/02/24 01:14:18;;;;;;;9.02;5.07;;;;;;;-11.76;65.84;98057.31;4994505;28;20046;-74
2023/02/24 01:16:49;;;;;;;8.93;4.53;;;;;;;-12.05;65.71;98034.47;4962407;28;20093;-77
2023/02/24 01:19:21;;;;;;;11.02;5.65;;;;;;;-12.01;65.91;98046.47;4995130;28;20042;-75
2023/02/24 01:21:50;;;;;;;12.65;5.72;;;;;;;-12.13;66.12;98051.75;4978611;28;20045;-75
2023/02/24 01:24:18;;;;;;;12.05;6.38;;;;;;;-12.20;66.66;98060.41;4978280;28;20490;-75
2023/02/24 01:26:43;;;;;;;4.85;3.70;;;;;;;-12.27;66.31;98067.34;4995441;28;20053;-75
2023/02/24 01:29:10;;;;;;;12.07;7.05;;;;;;;-12.30;66.44;98061.34;4994209;28;20046;-75
2023/02/24 01:31:37;;;;;;;10.98;5.95;;;;;;;-12.24;66.52;98090.47;4978870;28;20047;-74
2023/02/24 01:34:04;;;;;;;10.65;5.55;;;;;;;-12.46;66.66;98077.81;4994266;28;20046;-75
2023/02/24 01:36:32;;;;;;;12.88;6.32;;;;;;;-12.43;66.78;98090.66;4995334;28;20489;-74
2023/02/24 01:39:00;;;;;;;13.32;6.70;;;;;;;-12.45;66.97;98102.69;4976827;28;20070;-74
2023/02/24 01:41:30;;;;;;;12.43;6.15;;;;;;;-12.45;66.80;98094.97;4961701;28;20409;-75
2023/02/24 01:44:02;;;;;;;11.55;4.78;;;;;;;-12.61;66.94;98100.25;4977539;28;20046;-75
2023/02/24 01:46:31;;;;;;;13.82;6.82;;;;;;;-12.74;67.32;98109.78;4977337;28;20046;-75
2023/02/24 01:49:32;;;;;;;13.98;6.60;;;;;;;-12.79;67.19;98115.81;4977330;28;20077;-75
2023/02/24 01:52:01;;;;;;;10.35;6.47;;;;;;;-12.80;67.53;98114.97;4954293;28;20109;-74
2023/02/24 01:54:34;;;;;;;8.32;5.53;;;;;;;-12.77;67.38;98119.25;4977544;28;20051;-75
2023/02/24 01:57:04;;;;;;;6.13;3.83;;;;;;;-12.83;67.67;98127.00;4993654;28;20042;-75
2023/02/24 01:59:34;;;;;;;14.23;5.70;;;;;;;-12.80;67.53;98120.13;4977667;28;20592;-75
2023/02/24 02:02:03;;;;;;;13.50;6.53;;;;;;;-12.68;67.42;98124.31;4977359;28;20054;-75
2023/02/24 02:04:41;;;;;;;;;;;;;;;-12.64;66.84;98131.16;4993605;28;20046;-74
2023/02/24 02:07:11;;;;;;;6.65;4.22;;;;;;;-12.69;66.83;98126.91;4961154;28;19925;-74
2023/02/24 02:09:40;;;;;;;8.93;4.93;;;;;;;-12.67;66.53;98141.50;4977348;28;20082;-75
2023/02/24 02:12:08;;;;;;;7.75;4.97;;;;;;;-12.68;66.10;98147.47;4993300;28;20518;-76
2023/02/24 02:14:38;;;;;;;9.70;5.43;;;;;;;-12.88;65.88;98141.63;4993228;28;20559;-74
2023/02/24 02:17:13;;;;;;;6.78;3.95;;;;;;;-12.87;66.24;98154.47;4994778;28;20563;-74
2023/02/24 02:20:14;;;;;;;13.43;5.90;;;;;;;-12.88;65.96;98164.78;4993177;28;20046;-74
2023/02/24 02:23:17;;;;;;;9.95;5.45;;;;;;;-12.85;65.72;98162.19;4993618;28;20112;-75
2023/02/24 02:25:43;;;;;;;11.95;5.63;;;;;;;-12.84;65.30;98166.47;4977033;28;20472;-73
2023/02/24 02:28:41;;;;;;;10.73;5.68;;;;;;;-12.80;65.81;98179.28;4992972;28;20133;-76
2023/02/24 02:31:49;;;;;;;13.18;6.35;;;;;;;-12.80;65.38;98187.00;4973049;28;20058;-75
2023/02/24 02:34:26;;;;;;;8.60;4.88;;;;;;;-12.83;65.52;98181.03;4994085;28;20049;-74
2023/02/24 02:37:00;;;;;;;11.80;5.57;;;;;;;-12.75;65.02;98179.25;4993336;28;20399;-74
2023/02/24 02:39:32;;;;;;;11.55;5.75;;;;;;;-12.71;64.88;98183.56;4976549;28;20413;-76
2023/02/24 02:42:06;;;;;;;13.18;5.68;;;;;;;-12.70;64.90;98190.41;4993196;28;20494;-74
2023/02/24 02:44:39;;;;;;;14.20;6.43;;;;;;;-12.66;64.69;98199.81;4992745;28;20101;-75
2023/02/24 02:47:33;;;;;;;14.05;6.30;;;;;;;-12.72;64.81;98192.09;4993801;28;20050;-74
2023/02/24 02:50:25;;;;;;;12.35;5.93;;;;;;;-12.69;64.00;98202.38;4992629;28;20053;-74
2023/02/24 02:52:58;;;;;;;10.68;5.45;;;;;;;-12.75;64.20;98197.25;4992742;28;20054;-75
2023/02/24 02:55:36;;;;;;;11.60;5.65;;;;;;;-12.81;63.74;98212.75;4992594;28;20035;-75
2023/02/24 02:58:07;;;;;;;11.00;6.68;;;;;;;-12.83;63.89;98204.19;4976173;28;20046;-74
2023/02/24 03:00:48;;;;;;;8.45;5.03;;;;;;;-12.80;63.67;98217.03;4992602;28;20054;-75
2023/02/24 03:03:18;;;;;;;11.30;5.20;;;;;;;-12.91;63.30;98221.38;4976383;28;20134;-74
2023/02/24 03:05:50;;;;;;;13.20;6.47;;;;;;;-12.97;63.91;98233.41;4993375;28;20050;-76
2023/02/24 03:08:22;;;;;;;9.20;5.40;;;;;;;-13.02;63.90;98231.72;4976337;28;20046;-76
2023/02/24 03:10:50;;;;;;;6.88;4.38;;;;;;;-13.06;63.67;98240.31;4976510;28;20049;-74
2023/02/24 03:13:24;;;;;;;14.00;6.53;;;;;;;-13.06;63.52;98245.44;4992425;28;20058;-75
2023/02/24 03:15:52;;;;;;;12.55;6.05;;;;;;;-13.07;63.58;98259.19;4976131;28;20144;-75
2023/02/24 03:18:32;;;;;;;11.85;6.18;;;;;;;-13.05;64.03;98258.31;4992302;28;20141;-75
2023/02/24 03:21:06;;;;;;;12.63;5.82;;;;;;;-13.08;63.64;98273.75;4992738;28;20058;-73
2023/02/24 03:23:56;;;;;;;13.00;6.03;;;;;;;-13.25;63.51;98270.41;4976363;28;20050;-75
2023/02/24 03:26:29;;;;;;;7.45;4.07;;;;;;;-13.38;63.66;98271.31;4976428;28;20422;-76
2023/02/24 03:29:23;;;;;;;10.60;4.88;;;;;;;-13.42;63.91;98292.69;4976827;28;20448;-76
2023/02/24 03:32:04;;;;;;;9.75;5.00;;;;;;;-13.52;64.33;98297.00;4992229;28;20133;-76
2023/02/24 03:35:03;;;;;;;8.40;4.47;;;;;;;-13.37;64.30;98311.56;4976206;28;20055;-74
2023/02/24 03:37:32;;;;;;;9.93;4.82;;;;;;;-13.26;64.06;98320.13;4938692;28;20042;-75
2023/02/24 03:40:10;;;;;;;11.50;4.90;;;;;;;-13.22;63.81;98322.63;4975981;28;20141;-79
2023/02/24 03:42:40;;;;;;;17.95;6.07;;;;;;;-13.19;63.70;98321.78;4975877;28;20064;-77
2023/02/24 03:45:08;;;;;;;12.48;5.75;;;;;;;-13.18;63.95;98331.19;4957493;28;20067;-76
2023/02/24 03:47:35;;;;;;;12.07;5.60;;;;;;;-13.13;63.66;98334.59;4988799;28;20047;-77
2023/02/24 03:50:13;;;;;;;8.68;4.40;;;;;;;-13.10;63.87;98337.19;4972962;28;20117;-75
2023/02/24 03:52:54;;;;;;;8.52;5.03;;;;;;;-13.10;63.29;98323.47;4972881;28;20074;-78
2023/02/24 03:55:30;;;;;;;;;;;;;;;-13.05;62.85;98345.75;4957474;28;20050;-78
2023/02/24 03:58:02;;;;;;;6.25;3.95;;;;;;;-13.05;62.95;98350.03;4972771;28;19918;-77
2023/02/24 04:00:37;;;;;;;5.55;3.45;;;;;;;-13.08;63.47;98353.47;4972894;28;20070;-77
2023/02/24 04:03:12;;;;;;;6.75;4.20;;;;;;;-13.14;62.90;98350.06;4959284;28;20535;-77
2023/02/24 04:05:46;;;;;;;7.18;4.05;;;;;;;-13.01;66.13;98352.63;4944458;28;20082;-79
2023/02/24 04:08:14;;;;;;;8.73;5.50;;;;;;;-12.99;64.55;98358.59;4960701;28;20082;-75
2023/02/24 04:10:57;;;;;;;9.25;4.32;;;;;;;-13.03;63.38;98374.91;4976281;28;20517;-76
2023/02/24 04:13:34;;;;;;;12.70;5.00;;;;;;;-13.16;63.16;98368.06;4976621;28;20617;-76
2023/02/24 04:16:26;;;;;;;9.23;4.47;;;;;;;-13.09;63.35;98384.31;4976150;28;20039;-78
2023/02/24 04:19:02;;;;;;;9.02;4.95;;;;;;;-13.05;63.49;98386.91;4976320;28;20182;-76
2023/02/24 04:21:31;;;;;;;11.00;5.18;;;;;;;-12.97;63.02;98398.03;4976373;28;20047;-77
2023/02/24 04:23:59;;;;;;;6.35;3.70;;;;;;;-12.88;62.80;98411.75;4976067;28;20134;-77
2023/02/24 04:26:26;;;;;;;9.03;3.80;;;;;;;-12.85;62.65;98415.19;4977263;28;20054;-77
2023/02/24 04:28:55;;;;;;;9.77;5.18;;;;;;;-12.70;62.67;98421.16;4975650;28;20137;-75
2023/02/24 04:31:23;;;;;;;8.10;4.82;;;;;;;-12.63;62.33;98425.44;4959737;28;20137;-77
2023/02/24 04:33:49;;;;;;;8.55;4.63;;;;;;;-12.49;62.02;98428.78;4977086;28;20051;-78
2023/02/24 04:36:21;;;;;;;9.27;5.18;;;;;;;-12.53;61.93;98425.38;4959864;28;20043;-75
2023/02/24 04:38:47;;;;;;;17.58;5.18;;;;;;;-12.35;61.81;98427.03;4975467;28;20132;-76
2023/02/24 04:41:19;;;;;;;8.60;5.18;;;;;;;-12.33;61.42;98433.06;4975495;28;20110;-75
2023/02/24 04:43:52;;;;;;;10.38;5.57;;;;;;;-12.36;61.36;98439.94;4943566;28;20054;-75
2023/02/24 04:46:18;;;;;;;9.48;5.10;;;;;;;-12.29;61.06;98447.63;4980212;28;20049;-74
2023/02/24 04:48:44;;;;;;;7.55;4.50;;;;;;;-12.23;60.66;98451.88;4962090;28;20423;-75
2023/02/24 04:51:11;;;;;;;11.85;5.88;;;;;;;-12.39;61.82;98457.97;4980155;28;20568;-76
2023/02/24 04:53:37;;;;;;;10.85;5.38;;;;;;;-12.35;61.40;98468.25;4977400;28;20410;-80
2023/02/24 04:56:07;;;;;;;11.00;5.57;;;;;;;-12.24;61.31;98471.66;4976714;28;20046;-78
2023/02/24 04:58:36;;;;;;;10.70;5.20;;;;;;;-12.06;60.71;98470.72;4959558;28;20561;-78
2023/02/24 05:01:09;;;;;;;12.18;5.50;;;;;;;-11.90;60.50;98480.97;4975332;28;20051;-77
2023/02/24 05:03:36;;;;;;;9.40;4.93;;;;;;;-12.04;62.14;98479.28;4977218;28;20054;-77
2023/02/24 05:06:05;;;;;;;19.73;5.55;;;;;;;-11.84;61.09;98491.25;4959303;28;20062;-76
2023/02/24 05:08:31;;;;;;;9.50;5.22;;;;;;;-11.73;60.42;98494.63;4974996;28;20046;-77
2023/02/24 05:10:59;;;;;;;8.70;5.40;;;;;;;-11.48;60.17;98504.78;4959272;28;20046;-77
2023/02/24 05:13:27;;;;;;;10.27;5.07;;;;;;;-11.42;59.20;98500.44;4976599;28;20100;-79
2023/02/24 05:15:58;;;;;;;14.57;5.28;;;;;;;-11.39;58.30;98502.16;4975352;28;20039;-79
2023/02/24 05:18:28;;;;;;;9.15;5.13;;;;;;;-11.20;58.17;98506.34;4975022;28;20490;-78
2023/02/24 05:23:45;;;;;;;8.98;4.60;;;;;;;-11.19;57.17;98517.50;4975678;28;20105;-80
2023/02/24 05:26:15;;;;;;;8.90;4.45;;;;;;;-11.17;56.28;98511.47;4975390;28;20074;-79
2023/02/24 05:28:45;;;;;;;8.50;5.28;;;;;;;-11.16;56.71;98528.66;4975270;28;20113;-77
2023/02/24 05:31:14;;;;;;;10.05;4.18;;;;;;;-11.08;55.76;98537.22;4976126;28;20046;-79
2023/02/24 05:33:46;;;;;;;5.75;3.40;;;;;;;-10.96;55.55;98536.28;4974765;28;20034;-78
2023/02/24 05:36:18;;;;;;;4.05;2.88;;;;;;;-11.36;55.05;98545.97;4975968;28;20193;-79
2023/02/24 05:38:48;;;;;;;9.38;5.55;;;;;;;-11.37;56.45;98545.13;4976234;28;20055;-78
2023/02/24 05:41:16;;;;;;;7.93;4.75;;;;;;;-11.12;57.11;98550.16;4974626;28;20109;-78
2023/02/24 05:43:54;;;;;;;9.88;4.97;;;;;;;-10.94;56.22;98554.31;4974362;28;20054;-78
2023/02/24 05:46:28;;;;;;;11.00;4.95;;;;;;;-10.76;55.98;98549.03;4958593;28;20128;-76
2023/02/24 05:48:57;;;;;;;4.85;3.10;;;;;;;-11.13;54.41;98553.56;4942085;28;20087;-76
2023/02/24 05:51:23;;;;;;;;;;;;;;;-11.21;55.69;98561.38;4974256;28;20105;-77
2023/02/24 05:53:54;;;;;;;9.35;4.97;;;;;;;-11.09;55.76;98565.63;4985755;28;19918;-77
2023/02/24 05:56:22;;;;;;;8.45;4.57;;;;;;;-10.88;55.36;98565.47;4954048;28;20417;-77
2023/02/24 05:58:49;;;;;;;10.18;5.63;;;;;;;-10.98;55.51;98578.44;4966235;28;20073;-75
2023/02/24 06:01:17;;;;;;;9.95;5.00;;;;;;;-10.89;55.12;98573.22;4957657;28;20486;-77
2023/02/24 06:03:48;;;;;;;7.43;4.22;;;;;;;-10.77;54.95;98584.31;4974840;28;20125;-82
2023/02/24 06:06:15;;;;;;;4.72;3.00;;;;;;;-10.90;54.76;98585.28;4973907;28;20074;-76
2023/02/24 06:08:48;;;;;;;3.78;2.72;;;;;;;-10.65;54.88;98592.84;4957545;28;20490;-76
2023/02/24 06:11:19;;;;;;;7.00;4.50;;;;;;;-10.50;55.06;98589.28;4973660;28;20073;-79
2023/02/24 06:13:46;;;;;;;11.30;4.90;;;;;;;-10.20;54.94;98591.56;4973301;28;20043;-77
2023/02/24 06:16:17;;;;;;;6.95;4.43;;;;;;;-10.12;54.39;98594.94;4957317;28;20043;-76
2023/02/24 06:18:48;;;;;;;10.05;4.65;;;;;;;-10.13;54.30;98597.53;4973508;28;20068;-76
2023/02/24 06:21:14;;;;;;;7.90;4.85;;;;;;;-10.11;54.47;98607.00;4973767;28;20513;-79
2023/02/24 06:23:40;;;;;;;7.80;4.47;;;;;;;-10.25;55.08;98601.13;4957494;28;20078;-76
2023/02/24 06:26:11;;;;;;;12.02;3.88;;;;;;;-10.37;54.68;98620.19;4940994;28;20145;-78
2023/02/24 06:28:43;;;;;;;11.50;4.80;;;;;;;-10.39;55.86;98621.91;4974733;28;20046;-77
2023/02/24 06:31:09;;;;;;;9.40;4.95;;;;;;;-10.07;55.81;98618.19;4973566;28;20039;-76
2023/02/24 06:33:40;;;;;;;10.77;5.80;;;;;;;-9.64;55.73;98625.50;4973506;28;20530;-76
2023/02/24 06:36:07;;;;;;;10.35;5.93;;;;;;;-9.20;55.23;98625.00;4974519;28;20045;-78
2023/02/24 06:38:35;;;;;;;10.38;5.43;;;;;;;-9.01;54.45;98629.94;4973282;28;20056;-76
2023/02/24 06:41:03;;;;;;;9.13;5.07;;;;;;;-8.80;52.80;98634.81;4973154;28;20374;-76
2023/02/24 06:43:30;;;;;;;13.75;5.60;;;;;;;-8.51;52.46;98638.72;4973302;28;20137;-77
2023/02/24 06:45:56;;;;;;;12.07;5.18;;;;;;;-8.61;51.79;98646.66;4974295;28;20097;-78
2023/02/24 06:48:22;;;;;;;9.82;5.35;;;;;;;-8.47;51.62;98648.16;4974446;28;20051;-77
2023/02/24 06:50:51;;;;;;;11.70;5.45;;;;;;;-8.35;51.16;98647.94;4973242;28;20054;-76
2023/02/24 06:53:17;;;;;;;12.07;5.70;;;;;;;-7.88;51.41;98659.28;4974766;28;20555;-77
2023/02/24 06:55:45;;;;;;;9.93;6.07;;;;;;;-8.04;50.42;98653.50;4973750;28;20046;-78
2023/02/24 06:58:18;;;;;;;11.60;5.95;;;;;;;-7.75;51.26;98660.78;4974251;28;20066;-77
2023/02/24 07:01:06;;;;;;;13.60;6.00;;;;;;;-7.55;51.13;98665.63;4969869;28;20507;-77
2023/02/24 07:04:42;;;;;;;11.55;5.35;;;;;;;-7.44;49.55;98670.63;4953348;29;20389;-77
2023/02/24 07:06:28;;;;;;;10.15;5.07;;;;;;;-7.28;49.80;98664.25;4950415;28;20059;-76
2023/02/24 07:08:57;;;;;;;10.10;5.55;;;;;;;-7.15;49.68;98670.91;4970241;28;20406;-78
2023/02/24 07:11:23;;;;;;;16.30;6.10;;;;;;;-6.93;49.70;98681.72;4970089;28;20039;-76
2023/02/24 07:13:52;;;;;;;9.73;5.10;;;;;;;-6.92;48.76;98679.97;4953770;28;20495;-77
2023/02/24 07:16:23;;;;;;;10.32;6.13;;;;;;;-6.92;48.43;98680.88;4954796;28;20039;-77
2023/02/24 07:18:55;;;;;;;11.13;5.90;;;;;;;-6.93;48.04;98683.47;4969818;28;20141;-76
2023/02/24 07:21:23;;;;;;;11.27;5.90;;;;;;;-6.70;48.72;98681.25;4954849;28;20534;-77
2023/02/24 07:23:55;;;;;;;12.38;6.20;;;;;;;-6.74;48.05;98684.81;4953745;28;20043;-75
2023/02/24 07:26:24;;;;;;;10.43;5.45;;;;;;;-6.64;47.11;98694.13;4955329;28;20463;-79
2023/02/24 07:28:53;;;;;;;8.88;4.95;;;;;;;-6.73;47.34;98681.34;4955211;28;20112;-77
2023/02/24 07:31:22;;;;;;;10.23;6.30;;;;;;;-6.58;47.05;98694.88;4954718;29;20058;-76
2023/02/24 07:33:52;;;;;;;13.38;5.70;;;;;;;-6.45;47.23;98694.59;4969594;28;20138;-76
2023/02/24 07:36:21;;;;;;;13.18;6.03;;;;;;;-6.20;47.12;98707.91;4969402;28;20086;-76
2023/02/24 07:38:52;;;;;;;10.75;5.28;;;;;;;-6.09;46.38;98696.38;4958638;28;20043;-77
2023/02/24 07:41:21;;;;;;;9.27;5.90;;;;;;;-6.09;46.51;98704.19;4957242;28;20102;-76
2023/02/24 07:43:51;;;;;;;9.20;5.03;;;;;;;-5.90;46.02;98702.84;4973411;28;20553;-76
2023/02/24 07:46:24;;;;;;;12.30;5.97;;;;;;;-6.07;46.23;98705.00;4958441;28;20047;-76
2023/02/24 07:48:51;;;;;;;10.32;5.65;;;;;;;-6.08;45.78;98713.72;4973153;28;20054;-77
2023/02/24 07:51:22;;;;;;;11.68;6.20;;;;;;;-5.83;46.51;98716.53;4957262;29;20058;-76
2023/02/24 07:53:53;;;;;;;11.65;6.00;;;;;;;-5.87;45.97;98715.75;4985069;28;20410;-76
2023/02/24 07:56:25;;;;;;;13.85;6.35;;;;;;;-5.51;45.64;98723.56;4974833;28;20042;-77
2023/02/24 07:58:58;;;;;;;8.48;5.22;;;;;;;-5.47;44.47;98720.00;4991082;28;20042;-77
2023/02/24 08:01:29;;;;;;;12.07;5.95;;;;;;;-5.62;44.59;98722.09;4971703;28;20058;-77
2023/02/24 08:04:00;;;;;;;10.15;5.43;;;;;;;-5.67;45.38;98718.75;4943469;28;20039;-78
2023/02/24 08:06:36;;;;;;;8.93;5.20;;;;;;;-5.44;44.60;98723.38;4966795;28;20043;-78
2023/02/24 08:09:17;;;;;;;9.73;5.88;;;;;;;-5.41;44.92;98719.84;4975754;28;20046;-76
2023/02/24 08:11:52;;;;;;;10.77;6.60;;;;;;;-5.25;44.81;98725.50;4974672;28;20039;-77
2023/02/24 08:14:31;;;;;;;11.45;5.82;;;;;;;-5.24;44.63;98727.22;4958704;28;20062;-77
2023/02/24 08:17:00;;;;;;;13.80;5.90;;;;;;;-5.21;44.75;98714.13;4966510;28;20051;-76
2023/02/24 08:19:40;;;;;;;11.57;6.45;;;;;;;-5.08;44.59;98723.28;4970022;28;20045;-77
2023/02/24 08:22:18;;;;;;;10.10;5.13;;;;;;;-5.02;43.61;98724.91;4971894;28;20045;-77
2023/02/24 08:24:54;;;;;;;8.40;5.25;;;;;;;-4.90;43.62;98732.38;4966474;28;20054;-77
2023/02/24 08:27:24;;;;;;;10.85;5.68;;;;;;;-4.78;43.46;98732.03;4966094;28;20038;-76
2023/02/24 08:29:58;;;;;;;25.00;6.45;;;;;;;-4.66;43.99;98743.88;4972499;28;20043;-77
2023/02/24 08:32:42;;;;;;;10.20;6.03;;;;;;;-4.70;43.68;98740.50;4949232;28;20461;-77
2023/02/24 08:35:14;;;;;;;11.63;6.75;;;;;;;-4.65;43.86;98746.44;4970284;28;20042;-78
2023/02/24 08:37:47;;;;;;;12.07;6.32;;;;;;;-4.33;43.78;98739.44;4958130;28;20545;-79
2023/02/24 08:43:15;;;;;;;9.48;5.35;;;;;;;-4.23;43.11;98753.91;4975167;28;20078;-77
2023/02/24 08:45:50;;;;;;;11.40;6.28;;;;;;;-4.61;43.83;98733.31;4956877;29;20496;-76
2023/02/24 08:48:41;;;;;;;10.68;6.03;;;;;;;-4.45;43.92;98751.06;4971630;28;20121;-77
2023/02/24 08:51:30;;;;;;;15.40;5.95;;;;;;;-4.32;43.69;98750.75;4958280;28;20135;-80
2023/02/24 08:53:59;;;;;;;10.20;5.53;;;;;;;-5.05;46.30;98756.25;4956112;28;20145;-76
2023/02/24 08:56:33;;;;;;;15.27;5.85;;;;;;;-5.42;46.55;98754.56;4972202;28;20046;-74
2023/02/24 08:59:04;;;;;;;16.63;5.50;;;;;;;-5.54;46.78;98755.75;4972204;28;20047;-78
2023/02/24 09:01:33;;;;;;;17.55;7.00;;;;;;;-5.32;47.28;98763.03;4970724;28;20063;-77
2023/02/24 09:04:07;;;;;;;11.50;6.20;;;;;;;-4.86;46.12;98761.81;4958954;28;20502;-78
2023/02/24 09:06:45;;;;;;;14.63;5.63;;;;;;;-4.65;45.66;98762.09;4991274;28;20493;-77
2023/02/24 09:09:22;;;;;;;17.58;5.80;;;;;;;-4.64;44.46;98769.00;4959136;28;20074;-77
2023/02/24 09:11:58;;;;;;;11.73;5.90;;;;;;;-4.38;44.54;98764.81;4974814;28;20549;-76
2023/02/24 09:14:27;;;;;;;14.60;5.38;;;;;;;-4.09;44.30;98773.53;4958593;28;20467;-79
2023/02/24 09:17:09;;;;;;;10.10;6.47;;;;;;;-3.94;44.27;98763.50;4977673;28;20080;-78
2023/02/24 09:20:14;;;;;;;11.55;6.18;;;;;;;-3.89;44.45;98776.41;4977817;28;20050;-78
2023/02/24 09:22:39;;;;;;;12.52;6.90;;;;;;;-3.49;43.99;98781.22;4977532;28;20065;-76
2023/02/24 09:25:16;;;;;;;;;;;;;;;-3.72;43.51;98774.13;4984875;28;20569;-76
2023/02/24 09:27:54;;;;;;;10.35;6.57;;;;;;;-3.56;44.18;98786.69;4976636;28;19929;-79
2023/02/24 09:30:35;;;;;;;10.15;6.47;;;;;;;-3.19;43.66;98787.22;4960317;28;20038;-78
2023/02/24 09:33:16;;;;;;;11.25;6.30;;;;;;;-2.76;43.53;98783.09;4977521;28;20094;-77
2023/02/24 09:35:49;;;;;;;11.80;5.72;;;;;;;-3.20;42.01;98780.28;4978093;28;20089;-77
2023/02/24 09:38:17;;;;;;;11.75;6.55;;;;;;;-3.82;43.83;98772.69;4977207;28;20072;-77
2023/02/24 09:40:48;;;;;;;11.77;6.32;;;;;;;-3.28;43.92;98777.03;4993856;28;20557;-76
2023/02/24 09:43:19;;;;;;;7.85;4.60;;;;;;;-3.25;42.39;98790.00;4993854;28;20042;-78
2023/02/24 09:45:57;;;;;;;13.80;6.28;;;;;;;-2.96;43.46;98767.28;4989981;28;20111;-80
2023/02/24 09:48:42;;;;;;;8.40;5.05;;;;;;;-2.74;42.53;98778.69;4945514;28;20521;-76
2023/02/24 09:51:28;;;;;;;12.48;6.07;;;;;;;-3.02;42.55;98784.00;4977534;28;20042;-77
2023/02/24 09:53:55;;;;;;;13.38;5.60;;;;;;;-2.77;43.30;98791.88;4994652;28;20520;-77
2023/02/24 09:56:29;;;;;;;13.93;5.80;;;;;;;-2.75;42.31;98784.81;4977619;28;20046;-78
2023/02/24 09:59:09;;;;;;;10.10;6.47;;;;;;;-2.41;42.61;98791.47;4961256;28;20066;-77
2023/02/24 10:02:01;;;;;;;7.45;4.97;;;;;;;-2.32;42.00;98787.66;4960989;28;20060;-77
2023/02/24 10:04:47;;;;;;;10.10;5.60;;;;;;;-2.06;41.58;98794.56;4977418;28;20046;-77
2023/02/24 10:07:37;;;;;;;11.25;5.63;;;;;;;-1.61;41.36;98786.69;4945020;28;20089;-77
2023/02/24 10:10:34;;;;;;;10.43;5.72;;;;;;;-1.55;41.17;98790.81;4961061;28;20042;-77
2023/02/24 10:13:29;;;;;;;10.38;5.65;;;;;;;-1.80;39.77;98804.03;4961516;28;20498;-77
2023/02/24 10:18:41;;;;;;;11.75;5.70;;;;;;;-2.56;41.02;98808.56;4957111;28;20050;-76
2023/02/24 10:21:29;;;;;;;10.05;5.28;;;;;;;-2.27;41.34;98806.66;4975234;28;20050;-77
2023/02/24 10:24:06;;;;;;;9.95;5.40;;;;;;;-2.61;40.48;98809.66;4973908;28;20047;-76
2023/02/24 10:26:57;;;;;;;12.50;5.57;;;;;;;-2.22;40.84;98816.06;4973729;28;20101;-76
2023/02/24 10:29:28;;;;;;;11.57;6.28;;;;;;;-1.89;40.83;98820.09;4957175;28;20233;-76
2023/02/24 10:32:32;;;;;;;13.68;5.75;;;;;;;-1.55;40.22;98817.03;4941576;28;20054;-74
2023/02/24 10:35:02;;;;;;;10.40;5.65;;;;;;;-1.45;39.41;98826.25;4970532;28;20097;-79
2023/02/24 10:37:29;;;;;;;12.60;6.85;;;;;;;-1.72;38.44;98829.03;4973372;28;20049;-77
2023/02/24 10:39:58;;;;;;;12.30;5.85;;;;;;;-1.55;38.83;98822.28;4972908;28;20402;-77
2023/02/24 10:42:30;;;;;;;8.57;5.55;;;;;;;-1.22;37.99;98823.53;4957096;28;20104;-77
2023/02/24 10:45:23;;;;;;;11.60;6.10;;;;;;;-1.33;37.24;98825.75;4989650;28;20057;-75
2023/02/24 10:47:57;;;;;;;12.05;5.95;;;;;;;-1.85;37.74;98824.31;4977698;28;20054;-78
2023/02/24 10:50:43;;;;;;;10.13;6.15;;;;;;;-1.84;38.23;98829.50;4975906;28;20074;-77
2023/02/24 10:53:25;;;;;;;8.48;5.30;;;;;;;-1.39;38.24;98828.63;4974704;28;20045;-77
2023/02/24 10:56:00;;;;;;;9.77;6.07;;;;;;;-2.39;38.32;98828.06;4973514;28;20138;-76
2023/02/24 10:58:43;;;;;;;10.40;6.18;;;;;;;-2.27;38.86;98836.31;4973204;28;20446;-76
2023/02/24 11:01:26;;;;;;;10.27;5.93;;;;;;;-2.52;39.42;98838.09;4944724;28;20536;-77
2023/02/24 11:04:00;;;;;;;6.47;5.10;;;;;;;-2.43;38.84;98836.94;4981744;28;20481;-78
2023/02/24 11:06:41;;;;;;;10.02;6.07;;;;;;;-2.30;38.59;98838.19;4978093;28;20053;-76
2023/02/24 11:09:31;;;;;;;9.05;5.65;;;;;;;-2.56;38.69;98841.72;4977355;28;20046;-77
2023/02/24 11:17:55;;;;;;;8.30;5.68;;;;;;;-3.07;39.82;98846.06;4981272;28;20050;-77
2023/02/24 11:20:34;;;;;;;8.88;4.97;;;;;;;-3.42;39.11;98842.84;4974460;28;20093;-76
2023/02/24 11:23:03;;;;;;;11.60;4.50;;;;;;;-3.35;39.30;98843.47;4957029;28;20038;-78
2023/02/24 11:25:44;;;;;;;12.18;5.30;;;;;;;-3.42;39.10;98855.91;4956823;28;20139;-79
2023/02/24 11:28:23;;;;;;;8.50;5.28;;;;;;;-3.84;39.00;98858.03;4973043;28;20038;-79
2023/02/24 11:31:14;;;;;;;12.05;5.45;;;;;;;-4.18;39.75;98856.41;4972390;28;20049;-79
2023/02/24 11:33:59;;;;;;;10.88;5.13;;;;;;;-4.75;40.47;98857.09;4972340;28;20043;-79
2023/02/24 11:36:55;;;;;;;8.98;6.15;;;;;;;-5.40;41.82;98862.19;4973012;28;20070;-77
2023/02/24 11:39:28;;;;;;;8.07;4.75;;;;;;;-5.69;42.86;98868.91;4972398;28;20431;-76
2023/02/24 11:41:58;;;;;;;5.93;4.03;;;;;;;-6.19;43.48;98878.69;4972475;28;20074;-77
2023/02/24 11:44:50;;;;;;;7.57;5.00;;;;;;;-6.50;44.80;98890.59;4972552;28;20103;-77
2023/02/24 11:47:22;;;;;;;8.07;5.10;;;;;;;-6.21;44.57;98888.25;4980999;28;20039;-77
2023/02/24 11:50:23;;;;;;;8.32;4.22;;;;;;;-5.87;45.89;98891.00;4959625;28;20049;-78
2023/02/24 11:52:53;;;;;;;12.75;4.78;;;;;;;-5.42;44.26;98887.41;4935080;28;20050;-74
2023/02/24 11:55:33;;;;;;;20.48;6.97;;;;;;;-5.19;43.16;98890.34;4975895;28;20074;-75
2023/02/24 11:58:05;;;;;;;11.43;4.72;;;;;;;-4.70;42.23;98891.75;4943898;28;20053;-75
2023/02/24 12:00:36;;;;;;;8.45;5.65;;;;;;;-4.62;42.04;98893.31;4943129;28;20137;-78
2023/02/24 12:03:17;;;;;;;9.50;5.40;;;;;;;-4.42;41.81;98901.44;4992882;28;20395;-77
2023/02/24 12:05:49;;;;;;;13.05;5.88;;;;;;;-4.52;42.29;98902.59;4975719;28;20547;-78
2023/02/24 12:08:25;;;;;;;11.05;6.30;;;;;;;-4.22;42.07;98891.31;4975635;28;20140;-78
2023/02/24 12:11:02;;;;;;;10.40;6.38;;;;;;;-4.67;42.72;98907.28;4943757;28;20116;-77
2023/02/24 12:13:51;;;;;;;11.52;5.47;;;;;;;-4.32;43.58;98908.16;4991298;28;20050;-79